| time (UTC) | temp F | wind direction | speed MPH | gust MPH | rain 1hr in | rain 24hr in | rain mn in | humidity % | barometer mb |
| 20260508175057 | 61 | 223 | 6.0 | 13.0 | 0.00 | 0.00 | 0.00 | 67 | 1011.0 |
| 20260508175012 | 61 | 200 | 0.0 | 1.0 | 0.00 | 0.00 | 0.00 | 69 | 1009.4 |
| 20260508174606 | 60 | 223 | 5.0 | 15.0 | 0.00 | 0.00 | 0.00 | 68 | 1011.3 |
| 20260508174510 | 60 | 228 | 0.0 | 1.0 | 0.00 | 0.00 | 0.00 | 68 | 1009.6 |
| 20260508174100 | 60 | 196 | 5.0 | 15.0 | 0.00 | 0.00 | 0.00 | 67 | 1011.4 |
| 20260508174009 | 60 | 228 | 0.0 | 1.0 | 0.00 | 0.00 | 0.00 | 67 | 1009.5 |
| 20260508173603 | 60 | 234 | 6.0 | 14.0 | 0.00 | 0.00 | 0.00 | 66 | 1011.5 |
| 20260508173509 | 60 | 227 | 0.0 | 1.0 | 0.00 | 0.00 | 0.00 | 66 | 1009.7 |
| 20260508173100 | 60 | 172 | 6.0 | 14.0 | 0.00 | 0.00 | 0.00 | 67 | 1011.5 |
| 20260508173008 | 60 | 240 | 0.0 | 2.0 | 0.00 | 0.00 | 0.00 | 69 | 1009.8 |
| 20260508172558 | 61 | 244 | 3.0 | 10.0 | 0.00 | 0.00 | 0.00 | 69 | 1011.6 |
| 20260508172507 | 61 | 242 | 0.0 | 1.0 | 0.00 | 0.00 | 0.00 | 72 | 1009.7 |
| 20260508172101 | 59 | 257 | 4.0 | 8.0 | 0.00 | 0.00 | 0.00 | 70 | 1011.7 |
| 20260508172006 | 59 | 188 | 0.0 | 1.0 | 0.00 | 0.00 | 0.00 | 70 | 1009.9 |
| 20260508171602 | 60 | 227 | 4.0 | 10.0 | 0.00 | 0.00 | 0.00 | 68 | 1011.8 |
| 20260508171520 | 60 | 196 | 0.0 | 1.0 | 0.00 | 0.00 | 0.00 | 69 | 1009.9 |
| 20260508171100 | 60 | 215 | 4.0 | 11.0 | 0.00 | 0.00 | 0.00 | 70 | 1011.9 |
| 20260508171004 | 60 | 269 | 0.0 | 2.0 | 0.00 | 0.00 | 0.00 | 68 | 1010.0 |
| 20260508170600 | 60 | 200 | 4.0 | 12.0 | 0.00 | 0.00 | 0.00 | 71 | 1012.1 |
| 20260508170503 | 60 | 242 | 0.0 | 2.0 | 0.00 | 0.00 | 0.00 | 72 | 1010.2 |
| 20260508170004 | 60 | 232 | 0.0 | 2.0 | 0.00 | 0.00 | 0.00 | 70 | 1010.4 |
| 20260508165600 | 59 | 238 | 4.0 | 11.0 | 0.00 | 0.00 | 0.00 | 71 | 1012.3 |
| 20260508165503 | 59 | 286 | 0.0 | 2.0 | 0.00 | 0.00 | 0.00 | 69 | 1010.6 |
| 20260508165100 | 59 | 243 | 3.0 | 11.0 | 0.00 | 0.00 | 0.00 | 69 | 1012.5 |
| 20260508165006 | 59 | 298 | 0.0 | 2.0 | 0.00 | 0.00 | 0.00 | 70 | 1010.6 |
| 20260508164605 | 59 | 231 | 5.0 | 11.0 | 0.00 | 0.00 | 0.00 | 69 | 1012.6 |
| 20260508164503 | 59 | 274 | 0.0 | 2.0 | 0.00 | 0.00 | 0.00 | 70 | 1010.7 |
| 20260508164100 | 60 | 286 | 3.0 | 9.0 | 0.00 | 0.00 | 0.00 | 69 | 1012.5 |
| 20260508164010 | 60 | 203 | 0.0 | 1.0 | 0.00 | 0.00 | 0.00 | 73 | 1010.8 |
| 20260508163603 | 58 | 212 | 0.0 | 1.0 | 0.00 | 0.00 | 0.00 | 71 | 1010.9 |
| 20260508163600 | 58 | 195 | 5.0 | 14.0 | 0.00 | 0.00 | 0.00 | 71 | 1012.7 |
| 20260508163105 | 58 | 263 | 0.0 | 1.0 | 0.00 | 0.00 | 0.00 | 72 | 1011.0 |
| 20260508163100 | 58 | 269 | 5.0 | 14.0 | 0.00 | 0.00 | 0.00 | 72 | 1012.8 |
| 20260508162600 | 58 | 250 | 5.0 | 10.0 | 0.00 | 0.00 | 0.00 | 73 | 1013.0 |
| 20260508162558 | 58 | 275 | 0.0 | 1.0 | 0.00 | 0.00 | 0.00 | 74 | 1011.1 |
| 20260508162101 | 57 | 281 | 0.0 | 0.0 | 0.00 | 0.00 | 0.00 | 72 | 1011.1 |
| 20260508162058 | 57 | 215 | 2.0 | 8.0 | 0.00 | 0.00 | 0.00 | 72 | 1013.0 |
| 20260508161602 | 58 | 237 | 2.0 | 7.0 | 0.00 | 0.00 | 0.00 | 73 | 1012.9 |
| 20260508161102 | 57 | 252 | 3.0 | 10.0 | 0.00 | 0.00 | 0.00 | 74 | 1012.9 |
| 20260508160600 | 57 | 256 | 3.0 | 10.0 | 0.00 | 0.00 | 0.00 | 72 | 1013.0 |
| 20260508160558 | 57 | 274 | 0.0 | 0.0 | 0.00 | 0.00 | 0.00 | 73 | 1011.2 |
| 20260508160058 | 57 | 227 | 2.0 | 7.0 | 0.00 | 0.00 | 0.00 | 73 | 1012.9 |
| 20260508160055 | 57 | 274 | 0.0 | 0.0 | 0.00 | 0.00 | 0.00 | 74 | 1011.2 |
| 20260508155604 | 56 | 262 | 1.0 | 7.0 | 0.00 | 0.00 | 0.00 | 72 | 1013.0 |
| 20260508155555 | 56 | 270 | 0.0 | 0.0 | 0.00 | 0.00 | 0.00 | 73 | 1011.2 |
| 20260508155101 | 56 | 234 | 2.0 | 7.0 | 0.00 | 0.00 | 0.00 | 72 | 1013.0 |
| 20260508155055 | 56 | 263 | 0.0 | 0.0 | 0.00 | 0.00 | 0.00 | 72 | 1011.2 |
| 20260508154614 | 56 | 270 | 1.0 | 8.0 | 0.00 | 0.00 | 0.00 | 70 | 1013.0 |
| 20260508154557 | 56 | 300 | 0.0 | 0.0 | 0.00 | 0.00 | 0.00 | 73 | 1011.1 |
| 20260508154100 | 56 | 173 | 3.0 | 8.0 | 0.00 | 0.00 | 0.00 | 70 | 1012.9 |
| 20260508154053 | 56 | 171 | 0.0 | 0.0 | 0.00 | 0.00 | 0.00 | 71 | 1011.1 |
| 20260508153601 | 56 | 306 | 2.0 | 6.0 | 0.00 | 0.00 | 0.00 | 72 | 1012.9 |
| 20260508153555 | 56 | 308 | 0.0 | 0.0 | 0.00 | 0.00 | 0.00 | 73 | 1011.2 |
| 20260508153100 | 56 | 188 | 0.0 | 5.0 | 0.00 | 0.00 | 0.00 | 78 | 1013.0 |
| 20260508153053 | 56 | 309 | 0.0 | 0.0 | 0.00 | 0.00 | 0.00 | 78 | 1011.2 |
| 20260508152600 | 55 | 236 | 0.0 | 5.0 | 0.00 | 0.00 | 0.00 | 78 | 1012.9 |
| 20260508152553 | 55 | 309 | 0.0 | 0.0 | 0.00 | 0.00 | 0.00 | 78 | 1011.1 |
| 20260508152100 | 54 | 49 | 2.0 | 5.0 | 0.00 | 0.00 | 0.00 | 76 | 1012.9 |
| 20260508152052 | 54 | 309 | 0.0 | 0.0 | 0.00 | 0.00 | 0.00 | 77 | 1011.1 |
| 20260508151601 | 55 | 303 | 0.0 | 4.0 | 0.00 | 0.00 | 0.00 | 77 | 1013.0 |
| 20260508151559 | 55 | 306 | 0.0 | 0.0 | 0.00 | 0.00 | 0.00 | 78 | 1011.1 |
| 20260508151100 | 54 | 347 | 1.0 | 4.0 | 0.00 | 0.00 | 0.00 | 76 | 1012.9 |
| 20260508151053 | 54 | 306 | 0.0 | 0.0 | 0.00 | 0.00 | 0.00 | 77 | 1011.1 |
| 20260508150601 | 55 | 28 | 2.0 | 5.0 | 0.00 | 0.00 | 0.00 | 77 | 1013.0 |
| 20260508150553 | 55 | 306 | 0.0 | 0.0 | 0.00 | 0.00 | 0.00 | 77 | 1011.1 |
| 20260508150110 | 56 | 0 | 1.0 | 5.0 | 0.00 | 0.00 | 0.00 | 73 | 1012.9 |
| 20260508150052 | 56 | 305 | 0.0 | 0.0 | 0.00 | 0.00 | 0.00 | 74 | 1011.1 |
| 20260508145559 | 55 | 281 | 1.0 | 4.0 | 0.00 | 0.00 | 0.00 | 74 | 1013.1 |
| 20260508145556 | 55 | 304 | 0.0 | 0.0 | 0.00 | 0.00 | 0.00 | 75 | 1011.2 |
| 20260508145100 | 55 | 233 | 0.0 | 2.0 | 0.00 | 0.00 | 0.00 | 74 | 1012.9 |
| 20260508145055 | 55 | 304 | 0.0 | 0.0 | 0.00 | 0.00 | 0.00 | 74 | 1011.1 |
| 20260508144606 | 55 | 0 | 0.0 | 6.0 | 0.00 | 0.00 | 0.00 | 72 | 1013.0 |
| 20260508144553 | 55 | 304 | 0.0 | 0.0 | 0.00 | 0.00 | 0.00 | 73 | 1011.2 |
| 20260508144100 | 55 | 0 | 1.0 | 6.0 | 0.00 | 0.00 | 0.00 | 73 | 1012.9 |
| 20260508144051 | 55 | 304 | 0.0 | 0.0 | 0.00 | 0.00 | 0.00 | 72 | 1011.1 |
| 20260508143600 | 55 | 251 | 1.0 | 7.0 | 0.00 | 0.00 | 0.00 | 73 | 1013.0 |
| 20260508143551 | 55 | 304 | 0.0 | 0.0 | 0.00 | 0.00 | 0.00 | 73 | 1011.2 |
| 20260508143134 | 56 | 229 | 3.0 | 7.0 | 0.00 | 0.00 | 0.00 | 72 | 1012.9 |
| 20260508143057 | 56 | 304 | 0.0 | 0.0 | 0.00 | 0.00 | 0.00 | 72 | 1011.1 |
| 20260508142600 | 56 | 229 | 1.0 | 7.0 | 0.00 | 0.00 | 0.00 | 72 | 1012.9 |
| 20260508142550 | 56 | 307 | 0.0 | 0.0 | 0.00 | 0.00 | 0.00 | 72 | 1011.1 |
| 20260508142100 | 57 | 244 | 4.0 | 10.0 | 0.00 | 0.00 | 0.00 | 72 | 1012.9 |
| 20260508142049 | 57 | 215 | 0.0 | 0.0 | 0.00 | 0.00 | 0.00 | 73 | 1011.2 |
| 20260508141607 | 56 | 205 | 4.0 | 11.0 | 0.00 | 0.00 | 0.00 | 73 | 1012.9 |
| 20260508141548 | 56 | 218 | 0.0 | 0.0 | 0.00 | 0.00 | 0.00 | 73 | 1011.2 |
| 20260508141101 | 56 | 214 | 5.0 | 12.0 | 0.00 | 0.00 | 0.00 | 75 | 1013.0 |
| 20260508141046 | 56 | 212 | 0.0 | 0.0 | 0.00 | 0.00 | 0.00 | 75 | 1011.2 |
| 20260508140557 | 56 | 224 | 5.0 | 12.0 | 0.00 | 0.00 | 0.00 | 74 | 1012.9 |
| 20260508140546 | 56 | 200 | 0.0 | 0.0 | 0.00 | 0.00 | 0.00 | 74 | 1011.1 |
| 20260508140118 | 56 | 215 | 2.0 | 8.0 | 0.00 | 0.00 | 0.00 | 74 | 1013.0 |
| 20260508140052 | 56 | 286 | 0.0 | 0.0 | 0.00 | 0.00 | 0.00 | 74 | 1011.1 |
| 20260508135601 | 55 | 228 | 3.0 | 9.0 | 0.00 | 0.00 | 0.00 | 72 | 1013.0 |
| 20260508135545 | 55 | 286 | 0.0 | 0.0 | 0.00 | 0.00 | 0.00 | 73 | 1011.2 |
| 20260508135101 | 55 | 281 | 2.0 | 9.0 | 0.00 | 0.00 | 0.00 | 73 | 1013.0 |
| 20260508135041 | 55 | 296 | 0.0 | 1.0 | 0.00 | 0.00 | 0.00 | 73 | 1011.1 |
| 20260508134558 | 55 | 234 | 3.0 | 8.0 | 0.00 | 0.00 | 0.00 | 74 | 1013.0 |
| 20260508134544 | 55 | 296 | 0.0 | 1.0 | 0.00 | 0.00 | 0.00 | 75 | 1011.1 |
| 20260508134100 | 54 | 227 | 2.0 | 8.0 | 0.00 | 0.00 | 0.00 | 75 | 1012.9 |
| 20260508134037 | 54 | 297 | 0.0 | 3.0 | 0.00 | 0.00 | 0.00 | 76 | 1011.1 |
| 20260508133603 | 54 | 285 | 3.0 | 8.0 | 0.00 | 0.00 | 0.00 | 75 | 1013.0 |
| 20260508133536 | 54 | 298 | 0.0 | 3.0 | 0.00 | 0.00 | 0.00 | 76 | 1011.1 |
| 20260508133108 | 53 | 268 | 2.0 | 7.0 | 0.00 | 0.00 | 0.00 | 74 | 1012.9 |
| 20260508133036 | 53 | 298 | 0.0 | 1.0 | 0.00 | 0.00 | 0.00 | 74 | 1011.1 |
| 20260508132600 | 53 | 263 | 0.0 | 8.0 | 0.00 | 0.00 | 0.00 | 74 | 1013.0 |
| 20260508132534 | 53 | 298 | 0.0 | 2.0 | 0.00 | 0.00 | 0.00 | 75 | 1011.0 |
| 20260508132101 | 53 | 304 | 1.0 | 10.0 | 0.00 | 0.00 | 0.00 | 74 | 1013.0 |
| 20260508132034 | 53 | 298 | 0.0 | 2.0 | 0.00 | 0.00 | 0.00 | 75 | 1011.1 |
| 20260508131605 | 53 | 275 | 0.0 | 10.0 | 0.00 | 0.00 | 0.00 | 74 | 1013.1 |
| 20260508131535 | 53 | 295 | 0.0 | 2.0 | 0.00 | 0.00 | 0.00 | 75 | 1011.2 |
| 20260508131058 | 53 | 259 | 3.0 | 10.0 | 0.00 | 0.00 | 0.00 | 75 | 1013.1 |
| 20260508131031 | 53 | 296 | 0.0 | 2.0 | 0.00 | 0.00 | 0.00 | 76 | 1011.3 |
| 20260508130600 | 53 | 254 | 3.0 | 10.0 | 0.00 | 0.00 | 0.00 | 75 | 1013.1 |
| 20260508130529 | 53 | 286 | 0.0 | 2.0 | 0.00 | 0.00 | 0.00 | 75 | 1011.3 |
| 20260508130041 | 53 | 290 | 0.0 | 2.0 | 0.00 | 0.00 | 0.00 | 75 | 1011.3 |
| 20260508125603 | 53 | 87 | 3.0 | 12.0 | 0.00 | 0.00 | 0.00 | 76 | 1013.1 |
| 20260508125530 | 53 | 286 | 0.0 | 0.0 | 0.00 | 0.00 | 0.00 | 77 | 1011.3 |
| 20260508125057 | 52 | 257 | 1.0 | 12.0 | 0.00 | 0.00 | 0.00 | 75 | 1013.2 |
| 20260508125028 | 52 | 284 | 0.0 | 0.0 | 0.00 | 0.00 | 0.00 | 76 | 1011.3 |
| 20260508124600 | 52 | 228 | 6.0 | 12.0 | 0.00 | 0.00 | 0.00 | 76 | 1013.2 |
| 20260508124533 | 52 | 257 | 0.0 | 0.0 | 0.00 | 0.00 | 0.00 | 76 | 1011.3 |
| 20260508124059 | 52 | 246 | 2.0 | 10.0 | 0.00 | 0.00 | 0.00 | 77 | 1013.2 |
| 20260508124024 | 52 | 257 | 0.0 | 0.0 | 0.00 | 0.00 | 0.00 | 77 | 1011.3 |
| 20260508123600 | 51 | 264 | 5.0 | 10.0 | 0.00 | 0.00 | 0.00 | 78 | 1013.4 |
| 20260508123523 | 51 | 257 | 0.0 | 0.0 | 0.00 | 0.00 | 0.00 | 78 | 1011.5 |
| 20260508123059 | 51 | 215 | 3.0 | 11.0 | 0.00 | 0.00 | 0.00 | 79 | 1013.4 |
| 20260508123028 | 51 | 257 | 0.0 | 1.0 | 0.00 | 0.00 | 0.00 | 79 | 1011.4 |
| 20260508122559 | 51 | 248 | 4.0 | 11.0 | 0.00 | 0.00 | 0.00 | 78 | 1013.4 |
| 20260508122521 | 51 | 265 | 0.0 | 1.0 | 0.00 | 0.00 | 0.00 | 78 | 1011.5 |
| 20260508122059 | 51 | 265 | 4.0 | 11.0 | 0.00 | 0.00 | 0.00 | 78 | 1013.3 |
| 20260508122020 | 51 | 259 | 0.0 | 0.0 | 0.00 | 0.00 | 0.00 | 78 | 1011.4 |
| 20260508121559 | 50 | 253 | 4.0 | 10.0 | 0.00 | 0.00 | 0.00 | 78 | 1013.1 |
| 20260508121520 | 50 | 259 | 0.0 | 1.0 | 0.00 | 0.00 | 0.00 | 79 | 1011.1 |
| 20260508121100 | 50 | 240 | 2.0 | 8.0 | 0.00 | 0.00 | 0.00 | 78 | 1013.0 |
| 20260508121020 | 50 | 260 | 0.0 | 1.0 | 0.00 | 0.00 | 0.00 | 78 | 1011.0 |
| 20260508120600 | 50 | 218 | 3.0 | 9.0 | 0.00 | 0.00 | 0.00 | 78 | 1012.9 |
| 20260508120518 | 50 | 260 | 0.0 | 1.0 | 0.00 | 0.00 | 0.00 | 79 | 1011.0 |
| 20260508120018 | 50 | 243 | 0.0 | 0.0 | 0.00 | 0.00 | 0.00 | 79 | 1011.0 |
| 20260508115603 | 49 | 234 | 2.0 | 7.0 | 0.00 | 0.00 | 0.00 | 79 | 1012.9 |
| 20260508115518 | 49 | 242 | 0.0 | 0.0 | 0.00 | 0.00 | 0.00 | 80 | 1010.9 |
| 20260508115100 | 49 | 241 | 2.0 | 12.0 | 0.00 | 0.00 | 0.00 | 79 | 1012.8 |
| 20260508115016 | 49 | 242 | 0.0 | 0.0 | 0.00 | 0.00 | 0.00 | 80 | 1010.9 |
| 20260508114557 | 49 | 273 | 3.0 | 12.0 | 0.00 | 0.00 | 0.00 | 79 | 1012.8 |
| 20260508114515 | 49 | 242 | 0.0 | 0.0 | 0.00 | 0.00 | 0.00 | 79 | 1010.9 |
| 20260508114100 | 49 | 226 | 4.0 | 8.0 | 0.00 | 0.00 | 0.00 | 78 | 1012.6 |
| 20260508114014 | 49 | 242 | 0.0 | 0.0 | 0.00 | 0.00 | 0.00 | 79 | 1010.8 |
| 20260508113600 | 49 | 213 | 4.0 | 9.0 | 0.00 | 0.00 | 0.00 | 79 | 1012.7 |
| 20260508113513 | 49 | 242 | 0.0 | 1.0 | 0.00 | 0.00 | 0.00 | 79 | 1010.9 |
| 20260508113058 | 49 | 229 | 5.0 | 9.0 | 0.00 | 0.00 | 0.00 | 79 | 1012.7 |
| 20260508113016 | 49 | 241 | 0.0 | 0.0 | 0.00 | 0.00 | 0.00 | 79 | 1010.9 |
| 20260508112600 | 49 | 243 | 3.0 | 8.0 | 0.00 | 0.00 | 0.00 | 79 | 1012.7 |
| 20260508112512 | 49 | 240 | 0.0 | 0.0 | 0.00 | 0.00 | 0.00 | 79 | 1010.9 |
| 20260508112102 | 49 | 215 | 4.0 | 8.0 | 0.00 | 0.00 | 0.00 | 78 | 1012.4 |
| 20260508112012 | 49 | 241 | 0.0 | 0.0 | 0.00 | 0.00 | 0.00 | 79 | 1010.6 |
| 20260508111605 | 49 | 224 | 4.0 | 10.0 | 0.00 | 0.00 | 0.00 | 78 | 1012.2 |
| 20260508111518 | 49 | 252 | 0.0 | 0.0 | 0.00 | 0.00 | 0.00 | 79 | 1010.5 |
| 20260508111100 | 49 | 219 | 4.0 | 10.0 | 0.00 | 0.00 | 0.00 | 78 | 1012.2 |
| 20260508111016 | 49 | 252 | 0.0 | 0.0 | 0.00 | 0.00 | 0.00 | 79 | 1010.5 |
| 20260508110559 | 49 | 242 | 3.0 | 12.0 | 0.00 | 0.00 | 0.00 | 78 | 1012.3 |
| 20260508110512 | 49 | 253 | 0.0 | 0.0 | 0.00 | 0.00 | 0.00 | 79 | 1010.5 |
| 20260508110111 | 49 | 210 | 5.0 | 12.0 | 0.00 | 0.00 | 0.00 | 78 | 1012.3 |
| 20260508110012 | 49 | 253 | 0.0 | 0.0 | 0.00 | 0.00 | 0.00 | 79 | 1010.4 |
| 20260508105600 | 49 | 240 | 3.0 | 8.0 | 0.00 | 0.00 | 0.00 | 78 | 1012.1 |
| 20260508105513 | 49 | 254 | 0.0 | 0.0 | 0.00 | 0.00 | 0.00 | 79 | 1010.3 |
| 20260508105100 | 49 | 238 | 2.0 | 8.0 | 0.00 | 0.00 | 0.00 | 79 | 1012.1 |
| 20260508105011 | 49 | 254 | 0.0 | 0.0 | 0.00 | 0.00 | 0.00 | 79 | 1010.4 |
| 20260508104612 | 49 | 230 | 3.0 | 9.0 | 0.00 | 0.00 | 0.00 | 78 | 1012.2 |
| 20260508104509 | 49 | 236 | 0.0 | 1.0 | 0.00 | 0.00 | 0.00 | 79 | 1010.3 |
| 20260508104100 | 49 | 217 | 4.0 | 9.0 | 0.00 | 0.00 | 0.00 | 78 | 1012.0 |
| 20260508104009 | 49 | 236 | 0.0 | 0.0 | 0.00 | 0.00 | 0.00 | 78 | 1010.4 |
| 20260508103600 | 49 | 198 | 3.0 | 9.0 | 0.00 | 0.00 | 0.00 | 78 | 1012.1 |
| 20260508103508 | 49 | 237 | 0.0 | 0.0 | 0.00 | 0.00 | 0.00 | 78 | 1010.3 |
| 20260508103102 | 50 | 213 | 4.0 | 9.0 | 0.00 | 0.00 | 0.00 | 77 | 1012.1 |
| 20260508103009 | 50 | 237 | 0.0 | 0.0 | 0.00 | 0.00 | 0.00 | 78 | 1010.4 |
| 20260508102600 | 50 | 213 | 3.0 | 6.0 | 0.00 | 0.00 | 0.00 | 78 | 1012.1 |
| 20260508102507 | 50 | 237 | 0.0 | 0.0 | 0.00 | 0.00 | 0.00 | 79 | 1010.5 |
| 20260508102103 | 50 | 212 | 3.0 | 6.0 | 0.00 | 0.00 | 0.00 | 79 | 1012.2 |
| 20260508102008 | 50 | 238 | 0.0 | 0.0 | 0.00 | 0.00 | 0.00 | 79 | 1010.4 |
| 20260508101602 | 49 | 234 | 3.0 | 7.0 | 0.00 | 0.00 | 0.00 | 79 | 1012.2 |
| 20260508101513 | 49 | 238 | 0.0 | 0.0 | 0.00 | 0.00 | 0.00 | 80 | 1010.6 |
| 20260508101059 | 49 | 219 | 2.0 | 8.0 | 0.00 | 0.00 | 0.00 | 80 | 1012.3 |
| 20260508101007 | 49 | 238 | 0.0 | 0.0 | 0.00 | 0.00 | 0.00 | 80 | 1010.4 |
| 20260508100600 | 49 | 269 | 4.0 | 9.0 | 0.00 | 0.00 | 0.00 | 80 | 1012.2 |
| 20260508100507 | 49 | 238 | 0.0 | 0.0 | 0.00 | 0.00 | 0.00 | 80 | 1010.5 |
| 20260508100008 | 49 | 237 | 0.0 | 0.0 | 0.00 | 0.00 | 0.00 | 81 | 1010.3 |
| 20260508095600 | 49 | 240 | 3.0 | 8.0 | 0.00 | 0.00 | 0.00 | 81 | 1012.2 |
| 20260508095507 | 49 | 221 | 0.0 | 0.0 | 0.00 | 0.00 | 0.00 | 82 | 1010.5 |
| 20260508095100 | 48 | 236 | 3.0 | 8.0 | 0.00 | 0.00 | 0.00 | 82 | 1012.2 |
| 20260508095007 | 48 | 220 | 0.0 | 0.0 | 0.00 | 0.00 | 0.00 | 82 | 1010.4 |
| 20260508094559 | 48 | 238 | 3.0 | 8.0 | 0.00 | 0.00 | 0.00 | 82 | 1012.2 |
| 20260508094519 | 48 | 220 | 0.0 | 0.0 | 0.00 | 0.00 | 0.00 | 82 | 1010.4 |
| 20260508094059 | 48 | 216 | 3.0 | 7.0 | 0.00 | 0.00 | 0.00 | 82 | 1012.2 |
| 20260508094006 | 48 | 220 | 0.0 | 0.0 | 0.00 | 0.00 | 0.00 | 83 | 1010.5 |
| 20260508093603 | 47 | 219 | 2.0 | 6.0 | 0.00 | 0.00 | 0.00 | 82 | 1012.1 |
| 20260508093507 | 47 | 220 | 0.0 | 0.0 | 0.00 | 0.00 | 0.00 | 83 | 1010.4 |
| 20260508093100 | 47 | 205 | 3.0 | 9.0 | 0.00 | 0.00 | 0.00 | 82 | 1012.2 |
| 20260508093009 | 47 | 221 | 0.0 | 0.0 | 0.00 | 0.00 | 0.00 | 83 | 1010.4 |
| 20260508092600 | 47 | 214 | 4.0 | 9.0 | 0.00 | 0.00 | 0.00 | 83 | 1012.2 |
| 20260508092509 | 47 | 221 | 0.0 | 0.0 | 0.00 | 0.00 | 0.00 | 83 | 1010.4 |
| 20260508092059 | 47 | 214 | 3.0 | 10.0 | 0.00 | 0.00 | 0.00 | 83 | 1012.2 |
| 20260508092004 | 47 | 220 | 0.0 | 0.0 | 0.00 | 0.00 | 0.00 | 83 | 1010.5 |
| 20260508091609 | 47 | 221 | 4.0 | 10.0 | 0.00 | 0.00 | 0.00 | 83 | 1012.3 |
| 20260508091504 | 47 | 220 | 0.0 | 0.0 | 0.00 | 0.00 | 0.00 | 83 | 1010.5 |
| 20260508091058 | 47 | 244 | 3.0 | 8.0 | 0.00 | 0.00 | 0.00 | 83 | 1012.3 |
| 20260508091005 | 47 | 220 | 0.0 | 0.0 | 0.00 | 0.00 | 0.00 | 83 | 1010.6 |
| 20260508090559 | 47 | 238 | 3.0 | 7.0 | 0.00 | 0.00 | 0.00 | 83 | 1012.3 |
| 20260508090506 | 47 | 220 | 0.0 | 0.0 | 0.00 | 0.00 | 0.00 | 83 | 1010.6 |
| 20260508090109 | 48 | 235 | 2.0 | 8.0 | 0.00 | 0.00 | 0.00 | 83 | 1012.4 |
| 20260508090005 | 48 | 220 | 0.0 | 0.0 | 0.00 | 0.00 | 0.00 | 83 | 1010.7 |
| 20260508085559 | 48 | 222 | 3.0 | 8.0 | 0.00 | 0.00 | 0.00 | 83 | 1012.3 |
| 20260508085508 | 48 | 220 | 0.0 | 0.0 | 0.00 | 0.00 | 0.00 | 83 | 1010.6 |
| 20260508085102 | 48 | 232 | 3.0 | 9.0 | 0.00 | 0.00 | 0.00 | 82 | 1012.3 |
| 20260508085005 | 48 | 220 | 0.0 | 0.0 | 0.00 | 0.00 | 0.00 | 83 | 1010.6 |
| 20260508084614 | 48 | 208 | 3.0 | 10.0 | 0.00 | 0.00 | 0.00 | 82 | 1012.3 |
| 20260508084503 | 48 | 220 | 0.0 | 0.0 | 0.00 | 0.00 | 0.00 | 83 | 1010.5 |
| 20260508084100 | 48 | 255 | 4.0 | 10.0 | 0.00 | 0.00 | 0.00 | 82 | 1012.2 |
| 20260508084002 | 48 | 220 | 0.0 | 0.0 | 0.00 | 0.00 | 0.00 | 83 | 1010.4 |
| 20260508083559 | 48 | 221 | 3.0 | 10.0 | 0.00 | 0.00 | 0.00 | 82 | 1012.2 |
| 20260508083500 | 48 | 220 | 0.0 | 0.0 | 0.00 | 0.00 | 0.00 | 83 | 1010.5 |
| 20260508083108 | 48 | 218 | 4.0 | 10.0 | 0.00 | 0.00 | 0.00 | 82 | 1012.3 |
| 20260508083059 | 48 | 220 | 0.0 | 0.0 | 0.00 | 0.00 | 0.00 | 82 | 1010.5 |
| 20260508082559 | 48 | 221 | 0.0 | 0.0 | 0.00 | 0.00 | 0.00 | 83 | 1010.6 |
| 20260508082059 | 48 | 220 | 0.0 | 0.0 | 0.00 | 0.00 | 0.00 | 83 | 1010.6 |
| 20260508081610 | 48 | 220 | 0.0 | 0.0 | 0.00 | 0.00 | 0.00 | 83 | 1010.5 |
| 20260508081600 | 48 | 195 | 3.0 | 7.0 | 0.00 | 0.00 | 0.00 | 82 | 1012.3 |
| 20260508081059 | 48 | 220 | 0.0 | 0.0 | 0.00 | 0.00 | 0.00 | 83 | 1010.7 |
| 20260508080559 | 48 | 250 | 3.0 | 8.0 | 0.00 | 0.00 | 0.00 | 82 | 1012.3 |
| 20260508080557 | 48 | 220 | 0.0 | 0.0 | 0.00 | 0.00 | 0.00 | 83 | 1010.7 |
| 20260508080111 | 48 | 234 | 3.0 | 9.0 | 0.00 | 0.00 | 0.00 | 82 | 1012.3 |
| 20260508075602 | 48 | 210 | 4.0 | 9.0 | 0.00 | 0.00 | 0.00 | 82 | 1012.3 |
| 20260508075059 | 48 | 193 | 4.0 | 9.0 | 0.00 | 0.00 | 0.00 | 82 | 1012.4 |
| 20260508075056 | 48 | 220 | 0.0 | 0.0 | 0.00 | 0.00 | 0.00 | 82 | 1010.8 |
| 20260508074619 | 48 | 228 | 5.0 | 12.0 | 0.00 | 0.00 | 0.00 | 82 | 1012.5 |
| 20260508074557 | 48 | 221 | 0.0 | 0.0 | 0.00 | 0.00 | 0.00 | 82 | 1010.8 |
| 20260508074059 | 48 | 205 | 5.0 | 12.0 | 0.00 | 0.00 | 0.00 | 81 | 1012.5 |
| 20260508074055 | 48 | 236 | 0.0 | 0.0 | 0.00 | 0.00 | 0.00 | 82 | 1010.9 |
| 20260508073601 | 48 | 200 | 4.0 | 9.0 | 0.00 | 0.00 | 0.00 | 81 | 1012.5 |
| 20260508073555 | 48 | 237 | 0.0 | 0.0 | 0.00 | 0.00 | 0.00 | 82 | 1010.8 |
| 20260508073104 | 48 | 238 | 0.0 | 0.0 | 0.00 | 0.00 | 0.00 | 82 | 1010.9 |
| 20260508073100 | 48 | 223 | 3.0 | 9.0 | 0.00 | 0.00 | 0.00 | 81 | 1012.7 |
| 20260508072602 | 48 | 204 | 4.0 | 9.0 | 0.00 | 0.00 | 0.00 | 81 | 1012.6 |
| 20260508072554 | 48 | 227 | 0.0 | 0.0 | 0.00 | 0.00 | 0.00 | 82 | 1010.9 |
| 20260508072059 | 48 | 206 | 4.0 | 9.0 | 0.00 | 0.00 | 0.00 | 82 | 1012.5 |
| 20260508072053 | 48 | 227 | 0.0 | 0.0 | 0.00 | 0.00 | 0.00 | 82 | 1010.9 |
| 20260508071612 | 48 | 227 | 0.0 | 0.0 | 0.00 | 0.00 | 0.00 | 82 | 1010.9 |
| 20260508071600 | 48 | 222 | 4.0 | 9.0 | 0.00 | 0.00 | 0.00 | 82 | 1012.6 |
| 20260508071100 | 47 | 214 | 4.0 | 8.0 | 0.00 | 0.00 | 0.00 | 81 | 1012.6 |
| 20260508071052 | 47 | 227 | 0.0 | 0.0 | 0.00 | 0.00 | 0.00 | 82 | 1010.9 |
| 20260508070600 | 47 | 229 | 3.0 | 9.0 | 0.00 | 0.00 | 0.00 | 81 | 1012.7 |
| 20260508070553 | 47 | 227 | 0.0 | 0.0 | 0.00 | 0.00 | 0.00 | 81 | 1010.9 |
| 20260508070104 | 48 | 231 | 4.0 | 9.0 | 0.00 | 0.00 | 0.00 | 80 | 1012.7 |
| 20260508070059 | 48 | 227 | 0.0 | 0.0 | 0.00 | 0.00 | 0.00 | 81 | 1010.9 |
| 20260508065559 | 48 | 216 | 5.0 | 11.0 | 0.00 | 0.00 | 0.00 | 80 | 1012.8 |
| 20260508065551 | 48 | 227 | 0.0 | 0.0 | 0.00 | 0.00 | 0.00 | 81 | 1011.0 |
| 20260508065103 | 48 | 225 | 4.0 | 12.0 | 0.00 | 0.00 | 0.00 | 80 | 1012.9 |
| 20260508065048 | 48 | 229 | 0.0 | 0.0 | 0.00 | 0.00 | 0.00 | 80 | 1011.0 |
| 20260508064601 | 48 | 225 | 5.0 | 12.0 | 0.00 | 0.00 | 0.00 | 79 | 1012.9 |
| 20260508064548 | 48 | 229 | 0.0 | 0.0 | 0.00 | 0.00 | 0.00 | 80 | 1011.1 |
| 20260508064111 | 48 | 237 | 5.0 | 12.0 | 0.00 | 0.00 | 0.00 | 79 | 1012.9 |
| 20260508064047 | 48 | 229 | 0.0 | 0.0 | 0.00 | 0.00 | 0.00 | 80 | 1011.1 |
| 20260508063559 | 48 | 219 | 5.0 | 12.0 | 0.00 | 0.00 | 0.00 | 79 | 1012.9 |
| 20260508063547 | 48 | 229 | 0.0 | 0.0 | 0.00 | 0.00 | 0.00 | 80 | 1011.1 |
| 20260508063101 | 48 | 215 | 4.0 | 11.0 | 0.00 | 0.00 | 0.00 | 79 | 1012.9 |
| 20260508063047 | 48 | 229 | 0.0 | 0.0 | 0.00 | 0.00 | 0.00 | 79 | 1011.1 |
| 20260508062559 | 48 | 211 | 4.0 | 9.0 | 0.00 | 0.00 | 0.00 | 78 | 1012.8 |
| 20260508062546 | 48 | 229 | 0.0 | 0.0 | 0.00 | 0.00 | 0.00 | 79 | 1011.1 |
| 20260508062104 | 48 | 208 | 4.0 | 11.0 | 0.00 | 0.00 | 0.00 | 78 | 1012.9 |
| 20260508062046 | 48 | 238 | 0.0 | 0.0 | 0.00 | 0.00 | 0.00 | 79 | 1011.1 |
| 20260508061559 | 49 | 196 | 4.0 | 11.0 | 0.00 | 0.00 | 0.00 | 78 | 1013.0 |
| 20260508061547 | 49 | 238 | 0.0 | 0.0 | 0.00 | 0.00 | 0.00 | 78 | 1011.1 |
| 20260508061102 | 49 | 233 | 5.0 | 11.0 | 0.00 | 0.00 | 0.00 | 78 | 1012.9 |
| 20260508061045 | 49 | 238 | 0.0 | 0.0 | 0.00 | 0.00 | 0.00 | 78 | 1011.1 |
| 20260508060603 | 49 | 240 | 5.0 | 11.0 | 0.00 | 0.00 | 0.00 | 78 | 1013.0 |
| 20260508060543 | 49 | 236 | 0.0 | 0.0 | 0.00 | 0.00 | 0.00 | 78 | 1011.2 |
| 20260508060045 | 49 | 235 | 0.0 | 0.0 | 0.00 | 0.00 | 0.00 | 78 | 1011.2 |
| 20260508055602 | 49 | 220 | 5.0 | 11.0 | 0.00 | 0.00 | 0.00 | 78 | 1013.0 |
| 20260508055544 | 49 | 236 | 0.0 | 0.0 | 0.00 | 0.00 | 0.00 | 78 | 1011.3 |
| 20260508055142 | 49 | 236 | 0.0 | 0.0 | 0.00 | 0.00 | 0.00 | 78 | 1011.3 |
| 20260508055102 | 49 | 226 | 5.0 | 12.0 | 0.00 | 0.00 | 0.00 | 77 | 1013.1 |
| 20260508054602 | 49 | 236 | 5.0 | 12.0 | 0.00 | 0.00 | 0.00 | 76 | 1013.0 |
| 20260508054548 | 49 | 236 | 0.0 | 0.0 | 0.00 | 0.00 | 0.00 | 77 | 1011.2 |
| 20260508054105 | 50 | 217 | 5.0 | 13.0 | 0.00 | 0.00 | 0.00 | 76 | 1012.9 |
| 20260508054039 | 50 | 236 | 0.0 | 0.0 | 0.00 | 0.00 | 0.00 | 76 | 1011.0 |
| 20260508053604 | 50 | 211 | 5.0 | 16.0 | 0.00 | 0.00 | 0.00 | 75 | 1013.0 |
| 20260508053539 | 50 | 231 | 0.0 | 1.0 | 0.00 | 0.00 | 0.00 | 75 | 1011.2 |
| 20260508053106 | 50 | 238 | 5.0 | 16.0 | 0.00 | 0.00 | 0.00 | 74 | 1013.1 |
| 20260508053041 | 50 | 235 | 0.0 | 1.0 | 0.00 | 0.00 | 0.00 | 74 | 1011.3 |
| 20260508052600 | 50 | 236 | 6.0 | 15.0 | 0.00 | 0.00 | 0.00 | 73 | 1013.1 |
| 20260508052538 | 50 | 240 | 0.0 | 1.0 | 0.00 | 0.00 | 0.00 | 73 | 1011.3 |
| 20260508052102 | 50 | 215 | 6.0 | 11.0 | 0.00 | 0.00 | 0.00 | 72 | 1013.2 |
| 20260508052037 | 50 | 209 | 0.0 | 1.0 | 0.00 | 0.00 | 0.00 | 73 | 1011.3 |
| 20260508051617 | 50 | 196 | 5.0 | 11.0 | 0.00 | 0.00 | 0.00 | 72 | 1013.1 |
| 20260508051541 | 50 | 188 | 0.0 | 1.0 | 0.00 | 0.00 | 0.00 | 73 | 1011.3 |
| 20260508051102 | 50 | 220 | 6.0 | 15.0 | 0.00 | 0.00 | 0.00 | 72 | 1013.2 |
| 20260508051037 | 50 | 198 | 0.0 | 1.0 | 0.00 | 0.00 | 0.00 | 72 | 1011.3 |
| 20260508050600 | 50 | 186 | 7.0 | 15.0 | 0.00 | 0.00 | 0.00 | 72 | 1013.1 |
| 20260508050538 | 50 | 216 | 0.0 | 1.0 | 0.00 | 0.00 | 0.00 | 73 | 1011.2 |
| 20260508050113 | 50 | 211 | 5.0 | 14.0 | 0.00 | 0.00 | 0.00 | 73 | 1013.1 |
| 20260508050039 | 50 | 193 | 0.0 | 0.0 | 0.00 | 0.00 | 0.00 | 73 | 1011.3 |
| 20260508045559 | 50 | 195 | 4.0 | 11.0 | 0.00 | 0.00 | 0.00 | 73 | 1013.1 |
| 20260508045535 | 50 | 190 | 0.0 | 0.0 | 0.00 | 0.00 | 0.00 | 73 | 1011.3 |
| 20260508045101 | 50 | 193 | 4.0 | 8.0 | 0.00 | 0.00 | 0.00 | 73 | 1013.1 |
| 20260508045038 | 50 | 190 | 0.0 | 0.0 | 0.00 | 0.00 | 0.00 | 73 | 1011.4 |
| 20260508044559 | 50 | 200 | 3.0 | 8.0 | 0.00 | 0.00 | 0.00 | 73 | 1013.1 |
| 20260508044535 | 50 | 190 | 0.0 | 0.0 | 0.00 | 0.00 | 0.00 | 74 | 1011.4 |
| 20260508044100 | 50 | 225 | 3.0 | 8.0 | 0.00 | 0.00 | 0.00 | 73 | 1013.2 |
| 20260508044038 | 50 | 219 | 0.0 | 0.0 | 0.00 | 0.00 | 0.00 | 73 | 1011.3 |
| 20260508043559 | 50 | 213 | 4.0 | 8.0 | 0.00 | 0.00 | 0.00 | 73 | 1013.2 |
| 20260508043533 | 50 | 219 | 0.0 | 0.0 | 0.00 | 0.00 | 0.00 | 73 | 1011.4 |
| 20260508043105 | 50 | 209 | 3.0 | 8.0 | 0.00 | 0.00 | 0.00 | 72 | 1013.1 |
| 20260508043033 | 50 | 220 | 0.0 | 0.0 | 0.00 | 0.00 | 0.00 | 73 | 1011.4 |
| 20260508042602 | 50 | 196 | 4.0 | 8.0 | 0.00 | 0.00 | 0.00 | 72 | 1013.1 |
| 20260508042543 | 50 | 220 | 0.0 | 0.0 | 0.00 | 0.00 | 0.00 | 73 | 1011.3 |
| 20260508042102 | 50 | 210 | 4.0 | 8.0 | 0.00 | 0.00 | 0.00 | 72 | 1013.1 |
| 20260508042031 | 50 | 220 | 0.0 | 0.0 | 0.00 | 0.00 | 0.00 | 73 | 1011.3 |
| 20260508041604 | 50 | 220 | 3.0 | 8.0 | 0.00 | 0.00 | 0.00 | 72 | 1013.2 |
| 20260508041536 | 50 | 220 | 0.0 | 0.0 | 0.00 | 0.00 | 0.00 | 73 | 1011.3 |
| 20260508041103 | 50 | 211 | 3.0 | 8.0 | 0.00 | 0.00 | 0.00 | 72 | 1013.2 |
| 20260508041031 | 50 | 219 | 0.0 | 0.0 | 0.00 | 0.00 | 0.00 | 72 | 1011.4 |
| 20260508040602 | 50 | 229 | 3.0 | 9.0 | 0.00 | 0.00 | 0.00 | 71 | 1013.2 |
| 20260508040531 | 50 | 219 | 0.0 | 0.0 | 0.00 | 0.00 | 0.00 | 72 | 1011.5 |
| 20260508040109 | 50 | 215 | 4.0 | 9.0 | 0.00 | 0.00 | 0.00 | 71 | 1013.3 |
| 20260508040034 | 50 | 219 | 0.0 | 0.0 | 0.00 | 0.00 | 0.00 | 72 | 1011.5 |
| 20260508035558 | 50 | 187 | 4.0 | 8.0 | 0.00 | 0.00 | 0.00 | 71 | 1013.1 |
| 20260508035529 | 50 | 220 | 0.0 | 0.0 | 0.00 | 0.00 | 0.00 | 72 | 1011.3 |
| 20260508035059 | 50 | 221 | 3.0 | 9.0 | 0.00 | 0.00 | 0.00 | 71 | 1013.3 |
| 20260508035029 | 50 | 220 | 0.0 | 0.0 | 0.00 | 0.00 | 0.00 | 71 | 1011.5 |
| 20260508034600 | 51 | 236 | 4.0 | 10.0 | 0.00 | 0.00 | 0.00 | 70 | 1013.4 |
| 20260508034536 | 51 | 220 | 0.0 | 0.0 | 0.00 | 0.00 | 0.00 | 71 | 1011.7 |
| 20260508034101 | 51 | 197 | 4.0 | 10.0 | 0.00 | 0.00 | 0.00 | 70 | 1013.4 |
| 20260508034029 | 51 | 220 | 0.0 | 0.0 | 0.00 | 0.00 | 0.00 | 70 | 1011.6 |
| 20260508033602 | 51 | 225 | 4.0 | 10.0 | 0.00 | 0.00 | 0.00 | 69 | 1013.5 |
| 20260508033528 | 51 | 220 | 0.0 | 0.0 | 0.00 | 0.00 | 0.00 | 70 | 1011.7 |
| 20260508033100 | 51 | 221 | 4.0 | 10.0 | 0.00 | 0.00 | 0.00 | 69 | 1013.3 |
| 20260508033029 | 51 | 220 | 0.0 | 0.0 | 0.00 | 0.00 | 0.00 | 69 | 1011.7 |
| 20260508032559 | 51 | 230 | 4.0 | 10.0 | 0.00 | 0.00 | 0.00 | 68 | 1013.3 |
| 20260508032528 | 51 | 220 | 0.0 | 0.0 | 0.00 | 0.00 | 0.00 | 69 | 1011.7 |
| 20260508032059 | 51 | 205 | 5.0 | 10.0 | 0.00 | 0.00 | 0.00 | 68 | 1013.4 |
| 20260508032028 | 51 | 220 | 0.0 | 0.0 | 0.00 | 0.00 | 0.00 | 68 | 1011.7 |
| 20260508031559 | 51 | 227 | 4.0 | 9.0 | 0.00 | 0.00 | 0.00 | 68 | 1013.4 |
| 20260508031528 | 51 | 220 | 0.0 | 0.0 | 0.00 | 0.00 | 0.00 | 69 | 1011.7 |
| 20260508031059 | 51 | 202 | 4.0 | 10.0 | 0.00 | 0.00 | 0.00 | 69 | 1013.4 |
| 20260508031027 | 51 | 220 | 0.0 | 0.0 | 0.00 | 0.00 | 0.00 | 69 | 1011.7 |
| 20260508030559 | 51 | 217 | 3.0 | 10.0 | 0.00 | 0.00 | 0.00 | 68 | 1013.4 |
| 20260508030527 | 51 | 220 | 0.0 | 0.0 | 0.00 | 0.00 | 0.00 | 69 | 1011.6 |
| 20260508030058 | 51 | 219 | 5.0 | 12.0 | 0.00 | 0.00 | 0.00 | 68 | 1013.4 |
| 20260508030029 | 51 | 220 | 0.0 | 0.0 | 0.00 | 0.00 | 0.00 | 69 | 1011.5 |
| 20260508025600 | 51 | 213 | 5.0 | 12.0 | 0.00 | 0.00 | 0.00 | 68 | 1013.5 |
| 20260508025530 | 51 | 222 | 0.0 | 0.0 | 0.00 | 0.00 | 0.00 | 68 | 1011.8 |
| 20260508025100 | 51 | 236 | 4.0 | 11.0 | 0.00 | 0.00 | 0.00 | 68 | 1013.6 |
| 20260508025027 | 51 | 223 | 0.0 | 0.0 | 0.00 | 0.00 | 0.00 | 68 | 1011.8 |
| 20260508024559 | 52 | 217 | 5.0 | 13.0 | 0.00 | 0.00 | 0.00 | 66 | 1013.6 |
| 20260508024528 | 52 | 223 | 0.0 | 0.0 | 0.00 | 0.00 | 0.00 | 67 | 1012.0 |
| 20260508024100 | 52 | 226 | 6.0 | 13.0 | 0.00 | 0.00 | 0.00 | 66 | 1013.7 |
| 20260508024026 | 52 | 221 | 0.0 | 0.0 | 0.00 | 0.00 | 0.00 | 67 | 1012.0 |
| 20260508023558 | 52 | 227 | 6.0 | 13.0 | 0.00 | 0.00 | 0.00 | 67 | 1013.7 |
| 20260508023526 | 52 | 219 | 0.0 | 0.0 | 0.00 | 0.00 | 0.00 | 67 | 1011.9 |
| 20260508023100 | 52 | 244 | 4.0 | 13.0 | 0.00 | 0.00 | 0.00 | 67 | 1013.7 |
| 20260508023034 | 52 | 225 | 0.0 | 1.0 | 0.00 | 0.00 | 0.00 | 67 | 1011.9 |
| 20260508022559 | 52 | 232 | 5.0 | 14.0 | 0.00 | 0.00 | 0.00 | 66 | 1013.6 |
| 20260508022526 | 52 | 236 | 0.0 | 1.0 | 0.00 | 0.00 | 0.00 | 67 | 1011.9 |
| 20260508022100 | 52 | 210 | 6.0 | 17.0 | 0.00 | 0.00 | 0.00 | 66 | 1013.5 |
| 20260508022026 | 52 | 256 | 0.0 | 1.0 | 0.00 | 0.00 | 0.00 | 66 | 1011.9 |
| 20260508021557 | 52 | 211 | 4.0 | 17.0 | 0.00 | 0.00 | 0.00 | 66 | 1013.6 |
| 20260508021526 | 52 | 228 | 0.0 | 1.0 | 0.00 | 0.00 | 0.00 | 67 | 1011.9 |
| 20260508021059 | 52 | 214 | 9.0 | 17.0 | 0.00 | 0.00 | 0.00 | 65 | 1013.6 |
| 20260508021025 | 52 | 228 | 0.0 | 1.0 | 0.00 | 0.00 | 0.00 | 65 | 1011.8 |
| 20260508020559 | 52 | 193 | 7.0 | 16.0 | 0.00 | 0.00 | 0.00 | 64 | 1013.5 |
| 20260508020525 | 52 | 226 | 0.0 | 1.0 | 0.00 | 0.00 | 0.00 | 64 | 1011.8 |
| 20260508020100 | 52 | 243 | 7.0 | 16.0 | 0.00 | 0.00 | 0.00 | 64 | 1013.5 |
| 20260508020025 | 52 | 217 | 0.0 | 1.0 | 0.00 | 0.00 | 0.00 | 64 | 1011.7 |
| 20260508015559 | 53 | 227 | 8.0 | 19.0 | 0.00 | 0.00 | 0.00 | 62 | 1013.5 |
| 20260508015525 | 53 | 239 | 0.0 | 1.0 | 0.00 | 0.00 | 0.00 | 63 | 1011.8 |
| 20260508015100 | 53 | 238 | 6.0 | 21.0 | 0.00 | 0.00 | 0.00 | 62 | 1013.5 |
| 20260508015025 | 53 | 231 | 0.0 | 1.0 | 0.00 | 0.00 | 0.00 | 63 | 1011.8 |
| 20260508014558 | 53 | 248 | 9.0 | 21.0 | 0.00 | 0.00 | 0.00 | 61 | 1013.4 |
| 20260508014526 | 53 | 263 | 0.0 | 1.0 | 0.00 | 0.00 | 0.00 | 61 | 1011.8 |
| 20260508014100 | 53 | 241 | 7.0 | 17.0 | 0.00 | 0.00 | 0.00 | 61 | 1013.4 |
| 20260508014025 | 53 | 248 | 0.0 | 1.0 | 0.00 | 0.00 | 0.00 | 61 | 1011.8 |
| 20260508013602 | 53 | 161 | 8.0 | 17.0 | 0.00 | 0.00 | 0.00 | 61 | 1013.5 |
| 20260508013524 | 53 | 246 | 0.0 | 1.0 | 0.00 | 0.00 | 0.00 | 61 | 1011.7 |
| 20260508013057 | 53 | 208 | 5.0 | 17.0 | 0.00 | 0.00 | 0.00 | 61 | 1013.4 |
| 20260508013024 | 53 | 260 | 0.0 | 1.0 | 0.00 | 0.00 | 0.00 | 61 | 1011.5 |
| 20260508012559 | 53 | 263 | 7.0 | 19.0 | 0.00 | 0.00 | 0.00 | 59 | 1013.3 |
| 20260508012527 | 53 | 256 | 0.0 | 4.0 | 0.00 | 0.00 | 0.00 | 60 | 1011.5 |
| 20260508012059 | 54 | 236 | 7.0 | 19.0 | 0.00 | 0.00 | 0.00 | 58 | 1013.2 |
| 20260508012025 | 54 | 272 | 1.0 | 9.0 | 0.00 | 0.00 | 0.00 | 58 | 1011.5 |
| 20260508011559 | 54 | 258 | 9.0 | 25.0 | 0.00 | 0.00 | 0.00 | 57 | 1013.0 |
| 20260508011524 | 54 | 244 | 1.0 | 9.0 | 0.00 | 0.00 | 0.00 | 57 | 1011.4 |
| 20260508011058 | 55 | 240 | 12.0 | 25.0 | 0.00 | 0.00 | 0.00 | 54 | 1013.0 |
| 20260508011022 | 55 | 246 | 3.0 | 8.0 | 0.00 | 0.00 | 0.00 | 55 | 1011.2 |
| 20260508010600 | 55 | 256 | 10.0 | 19.0 | 0.00 | 0.00 | 0.00 | 53 | 1012.9 |
| 20260508010522 | 55 | 250 | 3.0 | 8.0 | 0.00 | 0.00 | 0.00 | 53 | 1011.2 |
| 20260508010057 | 55 | 213 | 5.0 | 14.0 | 0.00 | 0.00 | 0.00 | 53 | 1012.8 |
| 20260508010027 | 55 | 239 | 0.0 | 0.0 | 0.00 | 0.00 | 0.00 | 54 | 1011.0 |
| 20260508005603 | 55 | 234 | 6.0 | 11.0 | 0.00 | 0.00 | 0.00 | 53 | 1012.6 |
| 20260508005523 | 55 | 288 | 0.0 | 0.0 | 0.00 | 0.00 | 0.00 | 54 | 1010.8 |
| 20260508005104 | 55 | 229 | 2.0 | 9.0 | 0.00 | 0.00 | 0.00 | 56 | 1012.6 |
| 20260508005023 | 55 | 295 | 0.0 | 0.0 | 0.00 | 0.00 | 0.00 | 56 | 1010.9 |
| 20260508004602 | 55 | 232 | 2.0 | 9.0 | 0.00 | 0.00 | 0.00 | 54 | 1012.5 |
| 20260508004523 | 55 | 295 | 0.0 | 0.0 | 0.00 | 0.00 | 0.00 | 54 | 1010.9 |
| 20260508004100 | 55 | 232 | 2.0 | 7.0 | 0.00 | 0.00 | 0.00 | 52 | 1012.5 |
| 20260508004023 | 55 | 295 | 0.0 | 0.0 | 0.00 | 0.00 | 0.00 | 52 | 1010.9 |
| 20260508003603 | 54 | 235 | 2.0 | 5.0 | 0.00 | 0.00 | 0.00 | 52 | 1012.5 |
| 20260508003522 | 54 | 296 | 0.0 | 0.0 | 0.00 | 0.00 | 0.00 | 53 | 1011.0 |
| 20260508003100 | 54 | 245 | 2.0 | 5.0 | 0.00 | 0.00 | 0.00 | 52 | 1012.6 |
| 20260508003023 | 54 | 296 | 0.0 | 0.0 | 0.00 | 0.00 | 0.00 | 53 | 1011.0 |
| 20260508002559 | 54 | 237 | 2.0 | 4.0 | 0.00 | 0.00 | 0.00 | 51 | 1012.4 |
| 20260508002521 | 54 | 296 | 0.0 | 0.0 | 0.00 | 0.00 | 0.00 | 51 | 1010.9 |
| 20260508002059 | 54 | 236 | 1.0 | 3.0 | 0.00 | 0.00 | 0.00 | 51 | 1012.4 |
| 20260508002021 | 54 | 296 | 0.0 | 0.0 | 0.00 | 0.00 | 0.00 | 51 | 1010.8 |
| 20260508001600 | 54 | 259 | 1.0 | 3.0 | 0.00 | 0.00 | 0.00 | 52 | 1012.4 |
| 20260508001538 | 54 | 296 | 0.0 | 0.0 | 0.00 | 0.00 | 0.00 | 53 | 1010.8 |
| 20260508001103 | 54 | 254 | 0.0 | 4.0 | 0.00 | 0.00 | 0.00 | 53 | 1012.4 |
| 20260508001021 | 54 | 296 | 0.0 | 0.0 | 0.00 | 0.00 | 0.00 | 55 | 1010.7 |
| 20260508000602 | 54 | 0 | 0.0 | 4.0 | 0.00 | 0.00 | 0.00 | 61 | 1012.3 |
| 20260508000521 | 54 | 296 | 0.0 | 0.0 | 0.00 | 0.00 | 0.00 | 60 | 1010.8 |
| 20260508000020 | 54 | 296 | 0.0 | 0.0 | 0.00 | 0.00 | 0.00 | 57 | 1010.7 |
| 20260507235600 | 54 | 0 | 0.0 | 2.0 | 0.00 | 0.00 | 0.00 | 53 | 1012.4 |
| 20260507235523 | 54 | 296 | 0.0 | 0.0 | 0.00 | 0.00 | 0.00 | 54 | 1010.7 |
| 20260507235059 | 54 | 352 | 0.0 | 2.0 | 0.00 | 0.00 | 0.00 | 54 | 1012.3 |
| 20260507235024 | 54 | 296 | 0.0 | 0.0 | 0.00 | 0.00 | 0.00 | 55 | 1010.7 |
| 20260507234603 | 54 | 0 | 0.0 | 1.0 | 0.00 | 0.00 | 0.00 | 53 | 1012.3 |
| 20260507234523 | 54 | 296 | 0.0 | 0.0 | 0.00 | 0.00 | 0.00 | 55 | 1010.7 |
| 20260507234105 | 55 | 0 | 0.0 | 1.0 | 0.00 | 0.00 | 0.00 | 52 | 1012.4 |
| 20260507234020 | 55 | 296 | 0.0 | 0.0 | 0.00 | 0.00 | 0.00 | 53 | 1010.7 |
| 20260507233602 | 55 | 352 | 0.0 | 1.0 | 0.00 | 0.00 | 0.00 | 55 | 1012.4 |
| 20260507233519 | 54 | 296 | 0.0 | 0.0 | 0.00 | 0.00 | 0.00 | 56 | 1010.7 |
| 20260507233117 | 55 | 0 | 0.0 | 1.0 | 0.00 | 0.00 | 0.00 | 54 | 1012.4 |
| 20260507233024 | 55 | 296 | 0.0 | 0.0 | 0.00 | 0.00 | 0.00 | 56 | 1010.7 |
| 20260507232600 | 55 | 0 | 0.0 | 4.0 | 0.00 | 0.00 | 0.00 | 55 | 1012.4 |
| 20260507232519 | 55 | 296 | 0.0 | 0.0 | 0.00 | 0.00 | 0.00 | 55 | 1010.7 |
| 20260507232059 | 55 | 352 | 0.0 | 4.0 | 0.00 | 0.00 | 0.00 | 52 | 1012.5 |
| 20260507232018 | 55 | 296 | 0.0 | 0.0 | 0.00 | 0.00 | 0.00 | 53 | 1010.7 |
| 20260507231602 | 56 | 352 | 0.0 | 4.0 | 0.00 | 0.00 | 0.00 | 49 | 1012.4 |
| 20260507231521 | 56 | 296 | 0.0 | 0.0 | 0.00 | 0.00 | 0.00 | 49 | 1010.8 |
| 20260507231059 | 56 | 0 | 0.0 | 2.0 | 0.00 | 0.00 | 0.00 | 51 | 1012.5 |
| 20260507231016 | 56 | 296 | 0.0 | 0.0 | 0.00 | 0.00 | 0.00 | 51 | 1010.8 |
| 20260507230600 | 56 | 320 | 0.0 | 1.0 | 0.00 | 0.00 | 0.00 | 50 | 1012.5 |
| 20260507230518 | 56 | 296 | 0.0 | 0.0 | 0.00 | 0.00 | 0.00 | 51 | 1010.9 |
| 20260507230101 | 56 | 0 | 0.0 | 3.0 | 0.00 | 0.00 | 0.00 | 49 | 1012.6 |
| 20260507230025 | 56 | 296 | 0.0 | 1.0 | 0.00 | 0.00 | 0.00 | 50 | 1010.9 |
| 20260507225559 | 56 | 0 | 0.0 | 3.0 | 0.00 | 0.00 | 0.00 | 46 | 1012.6 |
| 20260507225516 | 56 | 295 | 0.0 | 1.0 | 0.00 | 0.00 | 0.00 | 48 | 1010.8 |
| 20260507225059 | 56 | 0 | 0.0 | 4.0 | 0.00 | 0.00 | 0.00 | 48 | 1012.6 |
| 20260507225019 | 56 | 290 | 0.0 | 1.0 | 0.00 | 0.00 | 0.00 | 49 | 1010.8 |
| 20260507224559 | 57 | 252 | 0.0 | 6.0 | 0.00 | 0.00 | 0.00 | 43 | 1012.6 |
| 20260507224526 | 57 | 293 | 0.0 | 1.0 | 0.00 | 0.00 | 0.00 | 44 | 1010.9 |
| 20260507224059 | 57 | 336 | 2.0 | 6.0 | 0.00 | 0.00 | 0.00 | 49 | 1012.7 |
| 20260507224016 | 57 | 315 | 0.0 | 1.0 | 0.00 | 0.00 | 0.00 | 48 | 1010.8 |
| 20260507223602 | 58 | 11 | 0.0 | 5.0 | 0.00 | 0.00 | 0.00 | 45 | 1012.7 |
| 20260507223518 | 57 | 296 | 0.0 | 1.0 | 0.00 | 0.00 | 0.00 | 45 | 1010.9 |
| 20260507223116 | 57 | 5 | 1.0 | 12.0 | 0.00 | 0.00 | 0.00 | 46 | 1012.7 |
| 20260507223016 | 57 | 296 | 0.0 | 5.0 | 0.00 | 0.00 | 0.00 | 44 | 1010.9 |
| 20260507222600 | 57 | 259 | 3.0 | 12.0 | 0.00 | 0.00 | 0.00 | 48 | 1012.7 |
| 20260507222516 | 57 | 311 | 0.0 | 5.0 | 0.00 | 0.00 | 0.00 | 48 | 1010.9 |
| 20260507222059 | 57 | 26 | 2.0 | 7.0 | 0.00 | 0.00 | 0.00 | 47 | 1012.7 |
| 20260507222015 | 57 | 273 | 0.0 | 1.0 | 0.00 | 0.00 | 0.00 | 48 | 1011.0 |
| 20260507221608 | 56 | 345 | 1.0 | 7.0 | 0.00 | 0.00 | 0.00 | 47 | 1012.7 |
| 20260507221522 | 56 | 338 | 0.0 | 5.0 | 0.00 | 0.00 | 0.00 | 48 | 1011.0 |
| 20260507221059 | 57 | 0 | 1.0 | 8.0 | 0.00 | 0.00 | 0.00 | 47 | 1012.7 |
| 20260507221014 | 57 | 294 | 1.0 | 5.0 | 0.00 | 0.00 | 0.00 | 48 | 1011.0 |
| 20260507220559 | 57 | 0 | 1.0 | 9.0 | 0.00 | 0.00 | 0.00 | 48 | 1012.7 |
| 20260507220513 | 57 | 296 | 0.0 | 5.0 | 0.00 | 0.00 | 0.00 | 48 | 1010.8 |
| 20260507220017 | 56 | 317 | 0.0 | 5.0 | 0.00 | 0.00 | 0.00 | 49 | 1010.9 |
| 20260507215600 | 57 | 9 | 2.0 | 9.0 | 0.00 | 0.00 | 0.00 | 49 | 1012.7 |
| 20260507215515 | 57 | 348 | 0.0 | 5.0 | 0.00 | 0.00 | 0.00 | 49 | 1010.9 |
| 20260507215100 | 57 | 208 | 2.0 | 8.0 | 0.00 | 0.00 | 0.00 | 49 | 1012.5 |
| 20260507215017 | 57 | 313 | 0.0 | 7.0 | 0.00 | 0.00 | 0.00 | 49 | 1010.9 |
| 20260507214604 | 57 | 236 | 1.0 | 7.0 | 0.00 | 0.00 | 0.00 | 46 | 1012.5 |
| 20260507214513 | 57 | 304 | 0.0 | 7.0 | 0.00 | 0.00 | 0.00 | 46 | 1010.8 |
| 20260507214059 | 56 | 339 | 1.0 | 9.0 | 0.00 | 0.00 | 0.00 | 47 | 1012.5 |
| 20260507214013 | 56 | 298 | 2.0 | 7.0 | 0.00 | 0.00 | 0.00 | 48 | 1010.9 |
| 20260507213559 | 57 | 320 | 1.0 | 10.0 | 0.00 | 0.00 | 0.00 | 46 | 1012.5 |
| 20260507213513 | 57 | 304 | 2.0 | 8.0 | 0.00 | 0.00 | 0.00 | 47 | 1010.9 |
| 20260507213107 | 57 | 342 | 2.0 | 10.0 | 0.00 | 0.00 | 0.00 | 45 | 1012.6 |
| 20260507213012 | 57 | 315 | 3.0 | 8.0 | 0.00 | 0.00 | 0.00 | 46 | 1010.9 |
| 20260507212559 | 56 | 41 | 2.0 | 10.0 | 0.00 | 0.00 | 0.00 | 47 | 1012.5 |
| 20260507212512 | 56 | 289 | 0.0 | 8.0 | 0.00 | 0.00 | 0.00 | 49 | 1011.0 |
| 20260507212059 | 56 | 17 | 2.0 | 12.0 | 0.00 | 0.00 | 0.00 | 45 | 1012.7 |
| 20260507212015 | 56 | 320 | 0.0 | 13.0 | 0.00 | 0.00 | 0.00 | 47 | 1010.9 |
| 20260507211612 | 57 | 24 | 2.0 | 12.0 | 0.00 | 0.00 | 0.00 | 46 | 1012.6 |
| 20260507211527 | 57 | 303 | 4.0 | 13.0 | 0.00 | 0.00 | 0.00 | 45 | 1010.9 |
| 20260507211059 | 58 | 284 | 5.0 | 12.0 | 0.00 | 0.00 | 0.00 | 43 | 1012.6 |
| 20260507211015 | 58 | 313 | 4.0 | 11.0 | 0.00 | 0.00 | 0.00 | 45 | 1010.9 |
| 20260507210600 | 59 | 259 | 4.0 | 12.0 | 0.00 | 0.00 | 0.00 | 43 | 1012.5 |
| 20260507210511 | 59 | 291 | 6.0 | 10.0 | 0.00 | 0.00 | 0.00 | 45 | 1010.9 |
| 20260507210116 | 58 | 219 | 1.0 | 9.0 | 0.00 | 0.00 | 0.00 | 45 | 1012.6 |
| 20260507210011 | 58 | 319 | 1.0 | 6.0 | 0.00 | 0.00 | 0.00 | 45 | 1010.9 |
| 20260507205605 | 57 | 99 | 1.0 | 9.0 | 0.00 | 0.00 | 0.00 | 49 | 1012.5 |
| 20260507205511 | 57 | 300 | 0.0 | 7.0 | 0.00 | 0.00 | 0.00 | 49 | 1010.9 |
| 20260507205101 | 58 | 245 | 2.0 | 9.0 | 0.00 | 0.00 | 0.00 | 47 | 1012.5 |
| 20260507205011 | 58 | 293 | 1.0 | 6.0 | 0.00 | 0.00 | 0.00 | 46 | 1010.9 |
| 20260507204601 | 58 | 331 | 1.0 | 9.0 | 0.00 | 0.00 | 0.00 | 50 | 1012.6 |
| 20260507204510 | 58 | 311 | 2.0 | 6.0 | 0.00 | 0.00 | 0.00 | 50 | 1010.9 |
| 20260507204103 | 57 | 305 | 1.0 | 9.0 | 0.00 | 0.00 | 0.00 | 47 | 1012.5 |
| 20260507204010 | 57 | 360 | 0.0 | 10.0 | 0.00 | 0.00 | 0.00 | 48 | 1010.9 |
| 20260507203601 | 57 | 0 | 2.0 | 9.0 | 0.00 | 0.00 | 0.00 | 46 | 1012.6 |
| 20260507203510 | 57 | 290 | 6.0 | 10.0 | 0.00 | 0.00 | 0.00 | 47 | 1010.9 |
| 20260507203101 | 56 | 0 | 1.0 | 9.0 | 0.00 | 0.00 | 0.00 | 53 | 1012.7 |
| 20260507203009 | 56 | 298 | 0.0 | 2.0 | 0.00 | 0.00 | 0.00 | 51 | 1011.0 |
| 20260507202606 | 55 | 0 | 2.0 | 9.0 | 0.00 | 0.00 | 0.00 | 51 | 1012.7 |
| 20260507202509 | 56 | 5 | 0.0 | 10.0 | 0.00 | 0.00 | 0.00 | 50 | 1011.0 |
| 20260507202101 | 57 | 341 | 2.0 | 10.0 | 0.00 | 0.00 | 0.00 | 47 | 1012.6 |
| 20260507202009 | 57 | 298 | 4.0 | 11.0 | 0.00 | 0.00 | 0.00 | 48 | 1011.0 |
| 20260507201600 | 57 | 246 | 1.0 | 10.0 | 0.00 | 0.00 | 0.00 | 49 | 1012.7 |
| 20260507201512 | 56 | 301 | 0.0 | 11.0 | 0.00 | 0.00 | 0.00 | 49 | 1010.9 |
| 20260507201101 | 56 | 274 | 1.0 | 9.0 | 0.00 | 0.00 | 0.00 | 47 | 1012.7 |
| 20260507201009 | 56 | 312 | 1.0 | 9.0 | 0.00 | 0.00 | 0.00 | 52 | 1011.0 |
| 20260507200602 | 56 | 251 | 1.0 | 10.0 | 0.00 | 0.00 | 0.00 | 48 | 1012.9 |
| 20260507200509 | 56 | 294 | 0.0 | 10.0 | 0.00 | 0.00 | 0.00 | 50 | 1011.0 |
| 20260507200106 | 56 | 326 | 2.0 | 10.0 | 0.00 | 0.00 | 0.00 | 46 | 1012.9 |
| 20260507200009 | 56 | 328 | 6.0 | 10.0 | 0.00 | 0.00 | 0.00 | 47 | 1011.1 |
| 20260507195601 | 56 | 316 | 2.0 | 10.0 | 0.00 | 0.00 | 0.00 | 46 | 1012.7 |
| 20260507195508 | 56 | 302 | 3.0 | 8.0 | 0.00 | 0.00 | 0.00 | 48 | 1011.0 |
| 20260507195058 | 57 | 277 | 1.0 | 9.0 | 0.00 | 0.00 | 0.00 | 47 | 1012.8 |
| 20260507195009 | 57 | 338 | 0.0 | 6.0 | 0.00 | 0.00 | 0.00 | 48 | 1010.9 |
| 20260507194601 | 56 | 235 | 2.0 | 10.0 | 0.00 | 0.00 | 0.00 | 47 | 1012.7 |
| 20260507194508 | 56 | 288 | 1.0 | 10.0 | 0.00 | 0.00 | 0.00 | 49 | 1010.9 |
| 20260507194100 | 55 | 314 | 3.0 | 15.0 | 0.00 | 0.00 | 0.00 | 48 | 1012.9 |
| 20260507194008 | 55 | 299 | 3.0 | 10.0 | 0.00 | 0.00 | 0.00 | 48 | 1011.0 |
| 20260507193600 | 56 | 288 | 3.0 | 15.0 | 0.00 | 0.00 | 0.00 | 49 | 1012.9 |
| 20260507193506 | 56 | 339 | 0.0 | 9.0 | 0.00 | 0.00 | 0.00 | 49 | 1011.1 |
| 20260507193059 | 57 | 252 | 4.0 | 13.0 | 0.00 | 0.00 | 0.00 | 47 | 1012.9 |
| 20260507193006 | 57 | 284 | 4.0 | 15.0 | 0.00 | 0.00 | 0.00 | 44 | 1011.0 |
| 20260507192605 | 58 | 296 | 6.0 | 15.0 | 0.00 | 0.00 | 0.00 | 45 | 1011.2 |
| 20260507192600 | 58 | 255 | 2.0 | 12.0 | 0.00 | 0.00 | 0.00 | 45 | 1013.0 |
| 20260507192101 | 58 | 251 | 1.0 | 12.0 | 0.00 | 0.00 | 0.00 | 48 | 1012.9 |
| 20260507192006 | 57 | 279 | 2.0 | 15.0 | 0.00 | 0.00 | 0.00 | 47 | 1011.1 |
| 20260507191603 | 57 | 283 | 3.0 | 12.0 | 0.00 | 0.00 | 0.00 | 45 | 1013.1 |
| 20260507191505 | 57 | 299 | 9.0 | 15.0 | 0.00 | 0.00 | 0.00 | 45 | 1011.2 |
| 20260507191102 | 57 | 269 | 2.0 | 12.0 | 0.00 | 0.00 | 0.00 | 45 | 1013.0 |
| 20260507191004 | 57 | 346 | 3.0 | 12.0 | 0.00 | 0.00 | 0.00 | 44 | 1011.2 |
| 20260507190601 | 56 | 71 | 1.0 | 13.0 | 0.00 | 0.00 | 0.00 | 45 | 1013.1 |
| 20260507190504 | 56 | 324 | 3.0 | 12.0 | 0.00 | 0.00 | 0.00 | 47 | 1011.2 |
| 20260507190110 | 56 | 269 | 5.0 | 14.0 | 0.00 | 0.00 | 0.00 | 45 | 1013.1 |
| 20260507190005 | 57 | 281 | 7.0 | 11.0 | 0.00 | 0.00 | 0.00 | 46 | 1011.3 |
| 20260507185601 | 56 | 232 | 5.0 | 14.0 | 0.00 | 0.00 | 0.00 | 45 | 1013.1 |
| 20260507185504 | 56 | 272 | 2.0 | 9.0 | 0.00 | 0.00 | 0.00 | 47 | 1011.2 |
| 20260507185101 | 57 | 262 | 6.0 | 14.0 | 0.00 | 0.00 | 0.00 | 49 | 1013.2 |
| 20260507185003 | 57 | 297 | 4.0 | 12.0 | 0.00 | 0.00 | 0.00 | 47 | 1011.2 |
| 20260507184559 | 56 | 262 | 2.0 | 7.0 | 0.00 | 0.00 | 0.00 | 46 | 1013.1 |
| 20260507184504 | 55 | 290 | 5.0 | 12.0 | 0.00 | 0.00 | 0.00 | 48 | 1011.3 |
| 20260507184100 | 56 | 238 | 1.0 | 11.0 | 0.00 | 0.00 | 0.00 | 47 | 1013.3 |
| 20260507184003 | 56 | 280 | 6.0 | 12.0 | 0.00 | 0.00 | 0.00 | 47 | 1011.4 |
| 20260507183600 | 55 | 272 | 3.0 | 14.0 | 0.00 | 0.00 | 0.00 | 48 | 1013.3 |
| 20260507183502 | 56 | 290 | 7.0 | 11.0 | 0.00 | 0.00 | 0.00 | 47 | 1011.4 |
| 20260507183117 | 57 | 262 | 4.0 | 14.0 | 0.00 | 0.00 | 0.00 | 46 | 1013.3 |
| 20260507183002 | 57 | 302 | 7.0 | 10.0 | 0.00 | 0.00 | 0.00 | 47 | 1011.3 |
| 20260507182601 | 57 | 257 | 4.0 | 11.0 | 0.00 | 0.00 | 0.00 | 47 | 1013.1 |
| 20260507182502 | 57 | 259 | 4.0 | 11.0 | 0.00 | 0.00 | 0.00 | 50 | 1011.4 |
| 20260507182104 | 58 | 257 | 3.0 | 16.0 | 0.00 | 0.00 | 0.00 | 48 | 1013.2 |
| 20260507182000 | 58 | 292 | 3.0 | 11.0 | 0.00 | 0.00 | 0.00 | 49 | 1011.2 |
| 20260507181606 | 59 | 256 | 4.0 | 16.0 | 0.00 | 0.00 | 0.00 | 45 | 1013.1 |
| 20260507181600 | 59 | 293 | 2.0 | 10.0 | 0.00 | 0.00 | 0.00 | 46 | 1011.3 |
| 20260507181102 | 57 | 269 | 1.0 | 4.0 | 0.00 | 0.00 | 0.00 | 52 | 1011.4 |
| 20260507180601 | 58 | 272 | 7.0 | 18.0 | 0.00 | 0.00 | 0.00 | 53 | 1013.3 |
| 20260507180559 | 58 | 283 | 0.0 | 9.0 | 0.00 | 0.00 | 0.00 | 53 | 1011.3 |
| 20260507180105 | 57 | 277 | 6.0 | 17.0 | 0.00 | 0.00 | 0.00 | 51 | 1013.1 |
| 20260507180100 | 57 | 292 | 3.0 | 9.0 | 0.00 | 0.00 | 0.00 | 51 | 1011.3 |
| 20260507175601 | 57 | 228 | 3.0 | 16.0 | 0.00 | 0.00 | 0.00 | 48 | 1013.3 |
| 20260507175558 | 57 | 292 | 0.0 | 4.0 | 0.00 | 0.00 | 0.00 | 49 | 1011.3 |